Terminal Aerodrome Forecast
Issued by NWS

Home | Current Version | Previous Version | Text Only | Print | Product List | Glossary On
Versions: 1 2 3 4 5 6 7 8 9 10 11 12 13
000
FTUS45 KABQ 292336
TAFGUP
TAF
KGUP 292336Z 3000/3024 05010KT P6SM VCSH BKN090
      TEMPO 3000/3002 VRB11G20KT -TSRA OVC040CB
     FM300200 13009KT P6SM VCSH OVC040
     FM300500 VRB04KT P6SM BKN050
      TEMPO 3009/3013 OVC025
     FM301900 17010KT P6SM VCTS BKN050CB=

USA.gov is the U.S. government's official web portal to all federal, state and local government web resources and services.